Tropical Cyclones
[Index]
Main Index Home Page Stock Weather Photos Extreme Storms Discussion Storm News and Storm Chasing Reports Tropical Cyclones / Hurricanes / Typhoons Weather Data and Links Wild Fires / Bushfires Weather Observation Techniques Weather Picture Catalogue Tornado Pictures and Reports Stock Video Footage and DVDs for sale
Season 1974-1975 Tropical Cyclone VAL Track Map
Season 1974-1975 Summaries: [BoM-AU] [JTWC-AU] [JTWC-SIO] [JTWC-SPAC] [JTWC-SH]
<<- Previous TC | JTWC 1974-1975 Season | Next TC ->>

click for intensity scale information  Lat/long Grid: Show Hide

 Date Labels: Show Hide

Joint Typhoon Warning Centre Cyclone Data

Name: VAL
Number: 888 / 7516

24 Jan 1975 00:00 UTC to 05 Feb 1975 12:00 UTC

    date/time    lat    long     hPa   cat  kts
1975-01-24 00   18.7   178.4                              
1975-01-24 06   18.3   178.8                              
1975-01-24 12   17.9   179.0                              
1975-01-24 18   17.6   178.9                              
1975-01-25 00   17.2   178.7                              
1975-01-25 06   16.3   178.9                              
1975-01-25 12   15.3   179.2                              
1975-01-25 18   14.9   179.9                              
1975-01-26 00   14.6   179.0W                             
1975-01-26 06   14.3   176.1W                             
1975-01-26 12   14.0   173.5W                             
1975-01-26 18   13.5   176.0W                             
1975-01-27 00   13.0   178.7W                             
1975-01-27 06   12.7   178.4W                             
1975-01-27 12   12.5   178.0W                             
1975-01-27 18   12.6   177.5W                             
1975-01-28 00   13.0   177.0W                             
1975-01-28 06   13.6   176.5W                             
1975-01-28 12   14.2   176.0W                             
1975-01-28 18   14.1   176.3W                             
1975-01-29 00   13.9   177.0W                             
1975-01-29 06   14.5   176.9W                             
1975-01-29 12   15.0   176.9W                             
1975-01-29 18   15.2   177.2W                             
1975-01-30 00   15.5   177.6W                             
1975-01-30 06   15.7   177.9W                             
1975-01-30 12   16.0   178.1W                             
1975-01-30 18   16.5   178.8W                             
1975-01-31 00   17.0   179.5W                             
1975-01-31 06   17.5   179.0W                             
1975-01-31 12   18.0   178.4W                             
1975-01-31 18   18.5   178.5W                             
1975-02-01 00   19.1   178.9W                             
1975-02-01 06   19.6   179.4W                             
1975-02-01 12   20.0   180.0                              
1975-02-01 18   20.2   179.4                              
1975-02-02 00   20.3   178.6                              
1975-02-02 06   20.7   177.3                              
1975-02-02 12   21.3   175.9                              
1975-02-02 18   22.0   174.7                              
1975-02-03 00   22.8   173.6                              
1975-02-03 06   23.6   173.0                              
1975-02-03 12   24.4   172.8                              
1975-02-03 18   25.3   172.9                              
1975-02-04 00   26.4   173.7                              
1975-02-04 06   27.9   175.4                              
1975-02-04 12   29.8   177.2                              
1975-02-04 18   31.9   179.1                              
1975-02-05 00   34.0   178.9W                             
1975-02-05 06   36.1   176.3W                             
1975-02-05 12   38.3   173.2W                             
Winds are 1-min average.

Tropical cyclone tracks developed by Michael Bath using data from the Joint Typhoon Warning Centre Best Tracks and Google Maps.


[Australian Severe Weather index] [Copyright Notice] [Email Contacts] [Search This Site] [Privacy Policy]
Document: tropical_cyclone_val.htm Updated: 18 September 2016